Time;durP1;ratioP1;P1;durP2;ratioP2;P2;SDS_P1;SDS_P2;PMS_P1;PMS_P2;Temp;Humidity;BMP_temperature;BMP_pressure;BME280_temperature;BME280_humidity;BME280_pressure;Samples;Min_cycle;Max_cycle;Signal;HPM_P1;HPM_P2
2022/04/28 00:00:36;;;;;;;11.53;9.97;;;7.40;99.90;;;;;;5077836;28;20964;-61
2022/04/28 00:03:11;;;;;;;15.03;10.73;;;7.40;99.90;;;;;;5078404;28;20790;-62
2022/04/28 00:05:41;;;;;;;14.47;10.30;;;7.40;99.90;;;;;;5078597;28;20461;-62
2022/04/28 00:08:12;;;;;;;11.37;10.17;;;7.40;99.90;;;;;;5077411;28;20457;-62
2022/04/28 00:10:39;;;;;;;14.63;9.90;;;7.40;99.90;;;;;;5058237;28;20461;-62
2022/04/28 00:13:15;;;;;;;12.10;9.80;;;7.30;99.90;;;;;;5063174;28;20481;-62
2022/04/28 00:15:43;;;;;;;13.00;10.30;;;7.30;99.90;;;;;;5078055;28;20518;-62
2022/04/28 00:18:19;;;;;;;12.37;10.43;;;7.20;99.90;;;;;;5077700;28;20547;-62
2022/04/28 00:20:46;;;;;;;11.50;9.33;;;7.20;99.90;;;;;;5077134;28;20528;-62
2022/04/28 00:23:13;;;;;;;12.47;9.80;;;7.10;99.90;;;;;;5077722;28;20475;-62
2022/04/28 00:25:40;;;;;;;13.67;11.90;;;7.10;99.90;;;;;;5077916;28;20877;-62
2022/04/28 00:28:07;;;;;;;13.30;10.40;;;7.00;99.90;;;;;;5077612;28;20527;-62
2022/04/28 00:30:35;;;;;;;13.17;9.97;;;7.00;99.90;;;;;;5076947;28;20809;-62
2022/04/28 00:33:04;;;;;;;10.90;9.37;;;6.90;99.90;;;;;;5077872;28;20461;-62
2022/04/28 00:35:31;;;;;;;12.93;11.20;;;6.90;99.90;;;;;;5077324;28;20512;-62
2022/04/28 00:37:58;;;;;;;12.70;9.77;;;6.90;99.90;;;;;;5077364;28;20525;-62
2022/04/28 00:40:27;;;;;;;11.80;10.03;;;6.80;99.90;;;;;;5076894;28;20523;-62
2022/04/28 00:43:18;;;;;;;10.77;9.63;;;6.80;1.00;;;;;;5076942;28;20511;-62
2022/04/28 00:45:44;;;;;;;11.00;9.70;;;6.80;1.00;;;;;;5076985;28;20908;-62
2022/04/28 00:51:01;;;;;;;12.70;10.30;;;6.70;99.90;;;;;;5076715;28;20448;-62
2022/04/28 00:53:35;;;;;;;11.83;10.63;;;6.70;1.00;;;;;;5077826;28;20465;-62
2022/04/28 00:56:03;;;;;;;12.90;10.50;;;6.70;1.00;;;;;;5076883;28;20824;-62
2022/04/28 00:58:30;;;;;;;12.23;10.13;;;6.60;1.00;;;;;;5076998;28;20547;-62
2022/04/28 01:01:04;;;;;;;11.67;10.03;;;6.60;1.00;;;;;;5076552;28;20508;-62
2022/04/28 01:03:31;;;;;;;13.00;10.97;;;6.50;1.00;;;;;;5077337;28;20895;-62
2022/04/28 01:05:59;;;;;;;16.10;11.00;;;6.50;1.00;;;;;;5076578;28;20465;-62
2022/04/28 01:08:26;;;;;;;13.40;11.47;;;6.40;1.00;;;;;;5077092;28;20514;-62
2022/04/28 01:10:53;;;;;;;14.33;11.87;;;6.40;1.00;;;;;;5076844;28;20464;-62
2022/04/28 01:13:20;;;;;;;13.80;11.40;;;6.40;1.00;;;;;;5076173;28;20493;-62
2022/04/28 01:16:08;;;;;;;12.43;10.80;;;6.30;1.00;;;;;;5076794;28;20469;-62
2022/04/28 01:18:48;;;;;;;13.50;10.80;;;6.30;1.00;;;;;;5077063;28;20879;-62
2022/04/28 01:21:20;;;;;;;11.50;10.30;;;6.30;1.00;;;;;;5077110;28;20530;-62
2022/04/28 01:23:49;;;;;;;11.77;10.57;;;6.40;1.00;;;;;;5076737;28;20476;-62
2022/04/28 01:26:22;;;;;;;13.97;11.63;;;6.40;1.00;;;;;;5076761;28;20661;-61
2022/04/28 01:29:01;;;;;;;13.53;10.20;;;6.40;1.00;;;;;;5076626;28;20465;-62
2022/04/28 01:31:28;;;;;;;14.17;10.67;;;6.30;1.00;;;;;;5077227;28;20471;-62
2022/04/28 01:33:55;;;;;;;17.90;11.50;;;6.30;1.00;;;;;;5075959;28;20465;-62
2022/04/28 01:36:23;;;;;;;14.13;11.37;;;6.30;1.00;;;;;;5076605;28;20461;-62
2022/04/28 01:38:53;;;;;;;17.67;10.80;;;6.20;1.00;;;;;;5056660;28;20486;-62
2022/04/28 01:41:20;;;;;;;15.20;10.00;;;6.30;1.00;;;;;;5058496;28;20529;-62
2022/04/28 01:43:50;;;;;;;13.50;11.23;;;6.30;1.00;;;;;;5075200;28;20958;-62
2022/04/28 01:46:21;;;;;;;16.23;11.70;;;6.20;1.00;;;;;;5076404;28;20582;-62
2022/04/28 01:48:50;;;;;;;14.17;10.70;;;6.20;1.00;;;;;;5076914;28;20456;-62
2022/04/28 01:56:55;;;;;;;13.07;10.80;;;6.20;1.00;;;;;;5076336;28;20495;-62
2022/04/28 01:59:28;;;;;;;16.97;11.27;;;6.20;1.00;;;;;;5076756;28;20470;-62
2022/04/28 02:01:54;;;;;;;15.77;11.57;;;6.10;1.00;;;;;;5075797;28;20538;-62
2022/04/28 02:04:21;;;;;;;12.73;11.43;;;6.20;1.00;;;;;;5077139;28;20465;-62
2022/04/28 02:06:52;;;;;;;15.77;10.87;;;6.00;1.00;;;;;;5076222;28;20529;-62
2022/04/28 02:09:27;;;;;;;13.33;11.47;;;6.10;1.00;;;;;;5076754;28;20461;-62
2022/04/28 02:11:56;;;;;;;15.30;11.37;;;6.10;1.00;;;;;;5075984;28;20574;-62
2022/04/28 02:14:23;;;;;;;15.77;11.07;;;6.00;1.00;;;;;;5075736;28;20469;-62
2022/04/28 02:16:53;;;;;;;14.10;11.30;;;6.00;1.00;;;;;;5076304;28;20468;-62
2022/04/28 02:19:24;;;;;;;14.40;11.37;;;6.00;1.00;;;;;;5076712;28;20940;-62
2022/04/28 02:21:54;;;;;;;16.57;12.17;;;5.90;1.00;;;;;;5076750;28;20462;-62
2022/04/28 02:24:21;;;;;;;15.13;12.20;;;5.90;1.00;;;;;;5077666;28;20476;-62
2022/04/28 02:26:54;;;;;;;13.63;12.13;;;5.90;1.00;;;;;;5079615;28;20782;-62
2022/04/28 02:29:21;;;;;;;15.10;12.27;;;5.90;1.00;;;;;;5080180;28;20464;-62
2022/04/28 02:31:48;;;;;;;15.60;11.60;;;5.80;1.00;;;;;;5079904;28;20461;-62
2022/04/28 02:34:17;;;;;;;17.10;11.80;;;5.80;1.00;;;;;;5079919;28;20508;-62
2022/04/28 02:36:47;;;;;;;20.43;12.97;;;5.70;1.00;;;;;;5079279;28;20526;-62
2022/04/28 02:39:15;;;;;;;16.10;12.30;;;5.70;1.00;;;;;;5079976;28;20481;-62
2022/04/28 02:41:44;;;;;;;17.70;12.33;;;5.70;1.00;;;;;;5078955;28;20463;-61
2022/04/28 02:44:13;;;;;;;15.40;12.90;;;5.70;1.00;;;;;;5079703;28;20560;-62
2022/04/28 02:46:45;;;;;;;16.53;13.90;;;5.70;1.00;;;;;;5078864;28;20813;-61
2022/04/28 02:49:12;;;;;;;16.83;13.37;;;5.70;1.00;;;;;;5078832;28;20458;-62
2022/04/28 02:51:41;;;;;;;17.27;13.60;;;5.70;1.00;;;;;;5079985;28;20458;-62
2022/04/28 02:54:14;;;;;;;17.03;13.63;;;5.60;1.00;;;;;;5079354;28;20472;-62
2022/04/28 02:56:43;;;;;;;18.20;14.23;;;5.60;1.00;;;;;;5079695;28;20498;-62
2022/04/28 02:59:13;;;;;;;19.33;14.63;;;5.70;1.00;;;;;;5078921;28;20460;-62
2022/04/28 03:01:43;;;;;;;18.10;14.20;;;5.60;1.00;;;;;;5079754;28;20442;-62
2022/04/28 03:04:10;;;;;;;17.47;14.90;;;5.60;1.00;;;;;;5077824;28;20465;-62
2022/04/28 03:12:13;;;;;;;20.47;16.60;;;5.50;1.00;;;;;;5078587;28;20483;-62
2022/04/28 03:14:44;;;;;;;27.80;15.87;;;5.60;1.00;;;;;;5078622;28;20535;-62
2022/04/28 03:17:12;;;;;;;17.53;14.20;;;5.50;1.00;;;;;;5079348;28;20500;-62
2022/04/28 03:19:38;;;;;;;19.27;14.37;;;5.50;1.00;;;;;;5078867;28;20942;-62
2022/04/28 03:22:09;;;;;;;24.93;16.23;;;5.50;1.00;;;;;;5078889;28;20465;-62
2022/04/28 03:24:40;;;;;;;23.20;16.33;;;5.50;1.00;;;;;;5078793;28;20963;-62
2022/04/28 03:27:07;;;;;;;17.20;15.07;;;5.50;1.00;;;;;;5079344;28;20469;-62
2022/04/28 03:29:33;;;;;;;22.63;16.30;;;5.50;1.00;;;;;;5078595;28;20872;-62
2022/04/28 03:32:08;;;;;;;20.80;14.90;;;5.40;1.00;;;;;;5078997;28;20519;-63
2022/04/28 03:34:38;;;;;;;25.13;15.23;;;5.40;1.00;;;;;;5078782;28;20902;-62
2022/04/28 03:37:09;;;;;;;23.50;15.70;;;5.40;1.00;;;;;;5078596;28;20460;-62
2022/04/28 03:39:38;;;;;;;22.03;15.17;;;5.30;1.00;;;;;;5078083;28;20581;-62
2022/04/28 03:42:14;;;;;;;21.30;15.50;;;5.30;1.00;;;;;;5079167;28;20442;-63
2022/04/28 03:44:47;;;;;;;20.37;14.20;;;5.20;1.00;;;;;;5078597;28;20458;-62
2022/04/28 03:47:15;;;;;;;23.93;17.40;;;5.10;1.00;;;;;;5078215;28;20492;-62
2022/04/28 03:49:46;;;;;;;21.73;14.70;;;5.10;1.00;;;;;;5078696;28;20493;-62
2022/04/28 03:52:29;;;;;;;18.57;14.57;;;5.10;1.00;;;;;;5078422;28;20587;-62
2022/04/28 03:54:56;;;;;;;17.63;15.57;;;5.10;1.00;;;;;;5078589;28;20471;-62
2022/04/28 03:57:23;;;;;;;26.80;16.93;;;5.00;1.00;;;;;;5078750;28;20465;-62
2022/04/28 03:59:52;;;;;;;24.93;17.70;;;5.00;1.00;;;;;;5078400;28;20496;-62
2022/04/28 04:02:22;;;;;;;22.20;16.50;;;5.00;1.00;;;;;;5077457;28;20563;-62
2022/04/28 04:04:52;;;;;;;21.20;16.00;;;5.00;18.00;;;;;;5078158;28;20805;-62
2022/04/28 04:07:24;;;;;;;20.67;17.13;;;5.00;1.00;;;;;;5078482;28;20951;-63
2022/04/28 04:09:54;;;;;;;19.77;16.47;;;5.10;1.00;;;;;;5078725;28;20465;-62
2022/04/28 04:12:21;;;;;;;22.60;17.00;;;5.00;20.50;;;;;;5076298;28;20535;-62
2022/04/28 04:14:48;;;;;;;21.97;17.77;;;5.00;47.70;;;;;;5078074;28;20914;-62
2022/04/28 04:17:15;;;;;;;21.57;16.93;;;5.00;58.50;;;;;;5076699;28;20466;-62
2022/04/28 04:19:44;;;;;;;22.93;17.50;;;5.00;65.30;;;;;;5078289;28;20500;-62
2022/04/28 04:22:19;;;;;;;24.40;18.83;;;5.00;44.10;;;;;;5077384;28;20502;-62
2022/04/28 04:24:50;;;;;;;26.90;16.57;;;5.00;62.80;;;;;;5077983;28;20491;-63
2022/04/28 04:27:17;;;;;;;24.27;18.93;;;5.10;99.90;;;;;;5077120;28;20490;-62
2022/04/28 04:29:44;;;;;;;22.93;16.77;;;5.00;58.40;;;;;;5077934;28;20501;-62
2022/04/28 04:32:18;;;;;;;21.80;19.33;;;5.10;35.50;;;;;;5076731;28;20535;-62
2022/04/28 04:34:47;;;;;;;21.60;18.30;;;5.00;59.30;;;;;;5077822;28;20467;-62
2022/04/28 04:37:16;;;;;;;25.40;18.03;;;5.10;92.90;;;;;;5077105;28;20834;-62
2022/04/28 04:39:46;;;;;;;22.60;17.37;;;5.10;99.90;;;;;;5077657;28;20590;-63
2022/04/28 04:42:16;;;;;;;22.33;16.77;;;5.10;27.10;;;;;;5076568;28;20560;-62
2022/04/28 04:44:43;;;;;;;25.73;17.33;;;5.10;1.00;;;;;;5076458;28;20519;-63
2022/04/28 04:47:10;;;;;;;22.40;17.50;;;5.10;1.00;;;;;;5075731;28;20856;-62
2022/04/28 04:49:36;;;;;;;23.77;18.00;;;5.10;1.00;;;;;;5077866;28;20685;-62
2022/04/28 04:52:06;;;;;;;21.17;16.17;;;5.10;1.00;;;;;;5076316;28;20552;-62
2022/04/28 04:54:35;;;;;;;30.17;19.20;;;5.20;1.00;;;;;;5077037;28;20475;-63
2022/04/28 04:57:06;;;;;;;21.23;17.17;;;5.20;1.00;;;;;;5076640;28;20564;-63
2022/04/28 04:59:33;;;;;;;22.50;16.77;;;5.20;1.00;;;;;;5077011;28;20499;-62
2022/04/28 05:02:05;;;;;;;19.77;16.20;;;5.20;1.00;;;;;;5076626;28;20514;-62
2022/04/28 05:04:35;;;;;;;25.10;16.80;;;5.30;1.00;;;;;;5075220;28;20489;-62
2022/04/28 05:07:06;;;;;;;22.00;18.10;;;5.30;1.00;;;;;;5076067;28;20523;-63
2022/04/28 05:09:37;;;;;;;23.07;15.73;;;5.40;1.00;;;;;;5075745;28;20555;-63
2022/04/28 05:12:07;;;;;;;21.03;16.67;;;5.50;1.00;;;;;;5076012;28;20524;-63
2022/04/28 05:14:34;;;;;;;22.90;16.70;;;5.50;1.00;;;;;;5076067;28;20971;-63
2022/04/28 05:17:01;;;;;;;21.80;16.27;;;5.60;1.00;;;;;;5076793;28;20873;-63
2022/04/28 05:19:33;;;;;;;30.27;17.47;;;5.60;1.00;;;;;;5076764;28;20951;-63
2022/04/28 05:22:02;;;;;;;24.27;19.07;;;5.70;9.60;;;;;;5077006;28;20465;-63
2022/04/28 05:24:36;;;;;;;23.77;19.30;;;5.80;27.20;;;;;;5076410;28;20805;-63
2022/04/28 05:27:06;;;;;;;24.33;18.40;;;5.90;21.60;;;;;;5077341;28;20526;-63
2022/04/28 05:29:33;;;;;;;23.40;19.70;;;5.90;1.00;;;;;;5076689;28;20508;-62
2022/04/28 05:32:00;;;;;;;24.80;19.60;;;6.00;1.00;;;;;;5076825;28;20469;-63
2022/04/28 05:34:29;;;;;;;24.50;19.13;;;6.10;1.00;;;;;;5074609;28;20546;-62
2022/04/28 05:37:02;;;;;;;23.27;17.20;;;6.20;1.00;;;;;;5076211;28;20504;-63
2022/04/28 05:39:33;;;;;;;28.07;19.97;;;6.30;1.00;;;;;;5075772;28;20492;-63
2022/04/28 05:42:01;;;;;;;24.77;19.60;;;6.40;1.00;;;;;;5074690;28;20501;-63
2022/04/28 05:47:22;;;;;;;24.60;19.73;;;6.70;1.00;;;;;;5073203;28;20899;-63
2022/04/28 05:49:49;;;;;;;27.30;21.00;;;6.80;1.00;;;;;;5074817;28;20465;-63
2022/04/28 05:52:16;;;;;;;24.00;19.63;;;6.90;1.00;;;;;;5075279;28;20832;-63
2022/04/28 05:54:46;;;;;;;24.20;19.83;;;7.00;1.00;;;;;;5075822;28;20866;-63
2022/04/28 05:57:13;;;;;;;23.40;19.13;;;7.10;1.00;;;;;;5076457;28;20568;-63
2022/04/28 05:59:44;;;;;;;27.63;20.23;;;7.30;1.00;;;;;;5077751;28;20583;-63
2022/04/28 06:02:11;;;;;;;25.17;19.60;;;7.40;1.00;;;;;;5079548;28;20466;-63
2022/04/28 06:04:38;;;;;;;23.37;20.70;;;7.50;1.00;;;;;;5078187;28;20556;-63
2022/04/28 06:07:07;;;;;;;27.57;19.47;;;7.70;1.00;;;;;;5080528;28;20530;-63
2022/04/28 06:09:34;;;;;;;24.73;19.00;;;8.00;1.00;;;;;;5075433;28;20465;-63
2022/04/28 06:12:05;;;;;;;25.37;18.70;;;8.30;1.00;;;;;;5079770;28;20489;-63
2022/04/28 06:14:35;;;;;;;26.37;18.73;;;8.40;1.00;;;;;;5079193;28;20996;-63
2022/04/28 06:17:02;;;;;;;22.50;19.17;;;8.80;1.00;;;;;;5079534;28;20460;-63
2022/04/28 06:19:37;;;;;;;22.77;19.23;;;9.10;1.00;;;;;;5080113;28;20588;-63
2022/04/28 06:22:08;;;;;;;20.20;17.63;;;9.30;99.90;;;;;;5079820;28;20496;-63
2022/04/28 06:24:37;;;;;;;24.10;17.77;;;9.40;99.90;;;;;;5080126;28;20510;-64
2022/04/28 06:27:08;;;;;;;29.00;18.30;;;9.50;99.90;;;;;;5079315;28;20548;-64
2022/04/28 06:29:41;;;;;;;20.50;17.80;;;9.60;99.90;;;;;;5080277;28;20481;-64
2022/04/28 06:32:16;;;;;;;19.40;17.40;;;9.50;99.90;;;;;;5079524;28;20833;-64
2022/04/28 06:34:43;;;;;;;22.20;18.57;;;9.70;99.90;;;;;;5079971;28;20778;-64
2022/04/28 06:37:10;;;;;;;24.60;18.40;;;10.00;99.90;;;;;;5079770;28;20493;-64
2022/04/28 06:39:37;;;;;;;24.90;18.97;;;10.30;99.90;;;;;;5080064;28;20499;-64
2022/04/28 06:42:09;;;;;;;23.50;19.50;;;10.80;99.90;;;;;;5079572;28;20507;-64
2022/04/28 06:44:41;;;;;;;22.30;18.70;;;11.20;99.90;;;;;;5079991;28;20519;-64
2022/04/28 06:47:13;;;;;;;20.40;18.33;;;10.80;99.90;;;;;;5079189;28;20458;-64
2022/04/28 06:49:40;;;;;;;24.17;18.00;;;10.90;99.90;;;;;;5060188;28;20956;-64
2022/04/28 06:52:11;;;;;;;25.07;18.90;;;11.50;99.90;;;;;;5064810;28;20508;-63
2022/04/28 06:54:41;;;;;;;21.43;18.30;;;12.10;99.90;;;;;;5078809;28;20461;-64
2022/04/28 06:57:09;;;;;;;21.67;18.07;;;12.50;99.90;;;;;;5076681;28;20548;-64
2022/04/28 06:59:45;;;;;;;21.03;18.83;;;12.50;99.90;;;;;;5078118;28;20521;-64
2022/04/28 07:02:12;;;;;;;21.37;18.30;;;12.90;99.90;;;;;;5079596;28;20545;-63
2022/04/28 07:04:39;;;;;;;22.10;18.83;;;13.20;99.90;;;;;;5079229;28;20460;-63
2022/04/28 07:07:09;;;;;;;19.53;17.57;;;13.00;99.90;;;;;;5079559;28;20767;-63
2022/04/28 07:09:42;;;;;;;20.33;18.20;;;13.30;99.90;;;;;;5077813;28;20465;-64
2022/04/28 07:12:12;;;;;;;23.77;18.77;;;13.70;99.90;;;;;;5079188;28;20486;-63
2022/04/28 07:14:46;;;;;;;30.33;18.57;;;13.90;99.90;;;;;;5079354;28;20761;-63
2022/04/28 07:17:15;;;;;;;21.50;17.03;;;14.20;99.90;;;;;;5079943;28;20711;-64
2022/04/28 07:19:45;;;;;;;20.20;18.17;;;14.20;99.90;;;;;;5078649;28;20593;-63
2022/04/28 07:22:12;;;;;;;20.10;18.00;;;14.30;99.90;;;;;;5079664;28;20497;-63
2022/04/28 07:24:41;;;;;;;18.73;16.97;;;14.50;99.90;;;;;;5068112;28;20506;-64
2022/04/28 07:27:13;;;;;;;21.00;18.97;;;14.40;99.90;;;;;;5059327;28;20990;-64
2022/04/28 07:32:23;;;;;;;23.57;18.07;;;14.30;99.90;;;;;;5076034;28;20491;-64
2022/04/28 07:34:50;;;;;;;21.07;18.97;;;14.60;99.90;;;;;;5079013;28;20488;-63
2022/04/28 07:37:20;;;;;;;19.43;17.43;;;14.80;99.90;;;;;;5079198;28;20457;-63
2022/04/28 07:40:00;;;;;;;21.53;18.20;;;14.70;99.90;;;;;;5078201;28;20880;-63
2022/04/28 07:42:33;;;;;;;22.77;19.13;;;14.80;99.90;;;;;;5078902;28;20496;-63
2022/04/28 07:44:59;;;;;;;22.53;18.80;;;15.10;99.90;;;;;;5078601;28;20472;-61
2022/04/28 07:47:27;;;;;;;19.03;17.00;;;15.20;99.90;;;;;;5078536;28;20501;-61
2022/04/28 07:49:57;;;;;;;19.20;17.40;;;15.10;99.90;;;;;;5077901;28;20768;-61
2022/04/28 07:52:24;;;;;;;19.53;17.60;;;15.20;99.90;;;;;;5078719;28;20504;-60
2022/04/28 07:54:56;;;;;;;21.10;18.23;;;15.50;99.90;;;;;;5078773;28;20465;-61
2022/04/28 07:57:23;;;;;;;23.90;18.80;;;15.80;99.90;;;;;;5076972;28;20501;-61
2022/04/28 08:00:04;;;;;;;19.90;17.97;;;16.00;99.90;;;;;;5077064;28;20525;-61
2022/04/28 08:02:32;;;;;;;20.37;18.40;;;15.90;99.90;;;;;;5069932;28;20550;-61
2022/04/28 08:05:02;;;;;;;19.90;17.80;;;15.90;99.90;;;;;;5077931;28;20462;-61
2022/04/28 08:07:34;;;;;;;19.07;17.07;;;16.20;99.90;;;;;;5077964;28;20913;-61
2022/04/28 08:10:01;;;;;;;18.50;16.60;;;16.30;99.90;;;;;;5078290;28;20900;-61
2022/04/28 08:12:31;;;;;;;18.77;16.97;;;16.50;99.90;;;;;;5076743;28;20527;-61
2022/04/28 08:15:03;;;;;;;20.73;18.83;;;16.70;99.90;;;;;;5078692;28;20549;-61
2022/04/28 08:17:33;;;;;;;20.60;18.60;;;17.00;99.90;;;;;;5077486;28;20465;-61
2022/04/28 08:20:06;;;;;;;20.70;18.37;;;17.20;99.90;;;;;;5077797;28;20551;-61
2022/04/28 08:22:33;;;;;;;22.70;20.30;;;17.10;99.90;;;;;;5077012;28;20512;-62
2022/04/28 08:25:01;;;;;;;21.97;19.53;;;17.10;99.90;;;;;;5086669;28;20775;-61
2022/04/28 08:27:32;;;;;;;20.90;18.80;;;17.20;99.90;;;;;;5080051;28;20465;-61
2022/04/28 08:30:00;;;;;;;20.47;18.67;;;17.40;99.90;;;;;;5071004;28;20506;-61
2022/04/28 08:32:27;;;;;;;20.50;18.30;;;17.00;99.90;;;;;;5068661;28;20584;-61
2022/04/28 08:34:54;;;;;;;18.97;16.97;;;17.40;99.90;;;;;;5071489;28;20938;-61
2022/04/28 08:37:26;;;;;;;22.00;17.40;;;17.80;99.90;;;;;;5067588;28;20470;-61
2022/04/28 08:39:56;;;;;;;18.00;16.10;;;17.90;99.90;;;;;;5074406;28;20473;-61
2022/04/28 08:42:28;;;;;;;21.57;18.20;;;18.00;99.90;;;;;;5072751;28;20509;-61
2022/04/28 08:45:01;;;;;;;19.60;17.80;;;18.10;99.90;;;;;;5075400;28;20470;-61
2022/04/28 08:47:38;;;;;;;18.80;16.93;;;18.30;99.90;;;;;;5076498;28;20512;-61
2022/04/28 08:50:09;;;;;;;19.13;17.33;;;18.40;99.90;;;;;;5076172;28;20548;-61
2022/04/28 08:52:40;;;;;;;19.27;17.43;;;18.60;99.90;;;;;;5076081;28;20544;-61
2022/04/28 08:55:12;;;;;;;18.23;16.63;;;18.80;99.90;;;;;;5076371;28;20556;-61
2022/04/28 08:57:39;;;;;;;19.10;17.30;;;18.70;99.90;;;;;;5074835;28;20885;-61
2022/04/28 09:00:08;;;;;;;18.60;16.80;;;18.80;99.90;;;;;;5075677;28;20580;-61
2022/04/28 09:02:46;;;;;;;22.63;16.73;;;18.90;99.90;;;;;;5073128;28;20543;-61
2022/04/28 09:05:19;;;;;;;20.37;18.20;;;18.60;99.90;;;;;;5070345;28;20849;-61
2022/04/28 09:07:48;;;;;;;18.03;16.33;;;18.40;99.90;;;;;;5074650;28;20469;-61
2022/04/28 09:10:29;;;;;;;16.80;14.83;;;18.80;99.90;;;;;;5072786;28;20461;-61
2022/04/28 09:15:51;;;;;;;16.33;14.73;;;18.00;99.90;;;;;;5075045;28;20461;-61
2022/04/28 09:18:19;;;;;;;16.40;14.93;;;18.50;99.90;;;;;;5076906;28;20460;-61
2022/04/28 09:20:47;;;;;;;14.73;13.40;;;18.80;99.90;;;;;;5075809;28;20910;-61
2022/04/28 09:23:18;;;;;;;15.80;14.30;;;19.30;99.90;;;;;;5076027;28;20465;-61
2022/04/28 09:25:49;;;;;;;15.67;14.07;;;18.90;99.90;;;;;;5072513;28;20460;-61
2022/04/28 09:28:19;;;;;;;16.63;14.93;;;18.90;99.90;;;;;;5075560;28;20490;-61
2022/04/28 09:30:52;;;;;;;15.50;14.00;;;18.70;99.90;;;;;;5073809;28;20475;-61
2022/04/28 09:33:24;;;;;;;18.00;15.47;;;19.30;99.90;;;;;;5077081;28;20465;-61
2022/04/28 09:36:01;;;;;;;17.23;15.43;;;19.50;99.90;;;;;;5080223;28;20868;-61
2022/04/28 09:38:30;;;;;;;15.83;14.40;;;17.60;99.90;;;;;;5080306;28;20472;-61
2022/04/28 09:43:43;;;;;;;17.33;15.67;;;17.80;99.90;;;;;;5078248;28;20872;-61
2022/04/28 09:46:14;;;;;;;15.67;14.33;;;18.20;99.90;;;;;;5078677;28;20489;-62
2022/04/28 09:48:49;;;;;;;14.67;13.37;;;19.00;99.90;;;;;;5080150;28;20504;-61
2022/04/28 09:51:21;;;;;;;16.43;14.53;;;18.40;99.90;;;;;;5076943;28;20575;-61
2022/04/28 09:53:49;;;;;;;15.70;14.20;;;18.00;99.90;;;;;;5078414;28;20465;-61
2022/04/28 09:56:21;;;;;;;15.27;13.63;;;17.40;99.90;;;;;;5077108;28;20560;-61
2022/04/28 09:58:50;;;;;;;15.67;14.23;;;18.00;99.90;;;;;;5071075;28;20785;-61
2022/04/28 10:01:21;;;;;;;16.60;15.03;;;18.40;99.90;;;;;;5071727;28;21040;-61
2022/04/28 10:03:49;;;;;;;14.63;13.23;;;19.60;99.90;;;;;;5079103;28;20937;-61
2022/04/28 10:06:18;;;;;;;15.83;14.30;;;19.40;99.90;;;;;;5058022;28;20870;-61
2022/04/28 10:08:55;;;;;;;14.90;13.50;;;18.70;99.90;;;;;;5078366;28;20460;-61
2022/04/28 10:11:27;;;;;;;14.17;12.77;;;19.40;99.90;;;;;;5079260;28;20807;-61
2022/04/28 10:13:59;;;;;;;15.87;14.37;;;20.30;99.90;;;;;;5078382;28;20461;-62
2022/04/28 10:16:31;;;;;;;16.20;14.80;;;19.30;99.90;;;;;;5079424;28;20889;-61
2022/04/28 10:19:02;;;;;;;15.60;14.10;;;19.20;99.90;;;;;;5075743;28;20497;-61
2022/04/28 10:21:37;;;;;;;14.07;12.70;;;18.80;99.90;;;;;;5076024;28;20576;-61
2022/04/28 10:32:57;;;;;;;14.47;12.97;;;19.50;99.90;;;;;;5078939;28;20486;-61
2022/04/28 10:35:53;;;;;;;15.03;13.63;;;19.70;99.90;;;;;;5079999;28;20457;-61
2022/04/28 10:38:22;;;;;;;15.97;14.03;;;19.60;99.90;;;;;;5074161;28;20481;-61
2022/04/28 10:41:01;;;;;;;14.77;13.47;;;20.00;99.90;;;;;;5077983;28;20591;-61
2022/04/28 10:43:38;;;;;;;15.93;14.30;;;20.40;99.90;;;;;;5074833;28;20480;-61
2022/04/28 10:46:34;;;;;;;16.90;15.40;;;18.80;99.90;;;;;;5064398;28;20526;-61
2022/04/28 10:49:05;;;;;;;14.83;13.50;;;18.30;99.90;;;;;;5078118;28;20498;-61
2022/04/28 10:51:44;;;;;;;16.80;15.00;;;19.00;99.90;;;;;;5078316;28;20948;-61
2022/04/28 10:54:21;;;;;;;15.27;13.87;;;19.20;99.90;;;;;;5077246;28;20477;-61
2022/04/28 10:57:00;;;;;;;14.80;13.40;;;19.20;99.90;;;;;;5075816;28;20469;-61
2022/04/28 10:59:34;;;;;;;13.27;12.23;;;20.60;99.90;;;;;;5081848;28;20475;-61
2022/04/28 11:02:49;;;;;;;15.47;14.20;;;21.30;99.90;;;;;;5076340;28;20496;-61
2022/04/28 11:05:37;;;;;;;15.90;13.73;;;22.10;99.90;;;;;;5077122;28;20496;-61
2022/04/28 11:08:25;;;;;;;14.37;11.87;;;22.50;99.90;;;;;;5077685;28;20808;-61
2022/04/28 11:11:11;;;;;;;14.50;12.57;;;21.50;99.90;;;;;;5071707;28;20449;-61
2022/04/28 11:13:43;;;;;;;14.73;13.30;;;19.70;99.90;;;;;;5063403;28;20486;-61
2022/04/28 11:16:13;;;;;;;13.70;12.60;;;19.80;99.90;;;;;;5063517;28;20718;-61
2022/04/28 11:18:45;;;;;;;14.27;13.00;;;21.10;99.90;;;;;;5073097;28;20945;-61
2022/04/28 11:21:22;;;;;;;13.07;11.97;;;22.00;99.90;;;;;;5076312;28;20577;-61
2022/04/28 11:23:53;;;;;;;13.23;11.93;;;21.30;99.90;;;;;;5069648;28;20906;-61
2022/04/28 11:26:25;;;;;;;15.33;12.33;;;21.40;99.90;;;;;;5080043;28;20490;-60
2022/04/28 11:29:07;;;;;;;13.27;11.97;;;21.10;99.90;;;;;;5077859;28;20469;-61
2022/04/28 11:31:34;;;;;;;13.70;11.93;;;20.80;99.90;;;;;;5077096;28;20472;-61
2022/04/28 11:34:09;;;;;;;14.87;13.47;;;20.40;99.90;;;;;;5077644;28;20995;-61
2022/04/28 11:36:41;;;;;;;15.23;13.57;;;20.70;99.90;;;;;;5077791;28;20822;-61
2022/04/28 11:39:10;;;;;;;13.13;12.03;;;21.10;99.90;;;;;;5077677;28;20520;-61
2022/04/28 11:41:43;;;;;;;15.13;13.63;;;21.40;99.90;;;;;;5077069;28;20496;-61
2022/04/28 11:44:19;;;;;;;14.30;13.07;;;22.00;99.90;;;;;;5077380;28;20886;-61
2022/04/28 11:46:56;;;;;;;15.13;13.57;;;22.50;99.90;;;;;;5075807;28;20571;-61
2022/04/28 11:49:25;;;;;;;15.67;14.00;;;22.40;99.90;;;;;;5078183;28;20461;-61
2022/04/28 11:51:56;;;;;;;15.43;13.77;;;20.80;99.90;;;;;;5076196;28;20471;-61
2022/04/28 11:54:25;;;;;;;13.77;12.47;;;20.40;99.90;;;;;;5075528;28;20950;-61
2022/04/28 11:57:07;;;;;;;13.90;12.70;;;19.50;99.90;;;;;;5075737;28;20779;-61
2022/04/28 11:59:36;;;;;;;13.27;12.17;;;19.40;99.90;;;;;;5072921;28;20488;-60
2022/04/28 12:02:24;;;;;;;14.73;13.53;;;19.80;99.90;;;;;;5076294;28;20499;-61
2022/04/28 12:04:54;;;;;;;14.50;12.73;;;19.10;99.90;;;;;;5077995;28;20465;-63
2022/04/28 12:07:24;;;;;;;14.13;12.80;;;20.10;99.90;;;;;;5073569;28;20492;-64
2022/04/28 12:15:28;;;;;;;15.50;14.00;;;20.90;99.90;;;;;;5072597;28;20444;-63
2022/04/28 12:20:57;;;;;;;16.50;15.00;;;20.60;99.90;;;;;;5064625;28;20452;-63
2022/04/28 12:23:34;;;;;;;14.97;13.47;;;21.60;99.90;;;;;;5073237;28;20469;-63
2022/04/28 12:26:03;;;;;;;17.30;15.70;;;21.60;99.90;;;;;;5070109;28;20581;-63
2022/04/28 12:28:31;;;;;;;18.23;16.40;;;22.10;99.90;;;;;;5073149;28;20780;-63
2022/04/28 12:31:03;;;;;;;18.20;16.40;;;21.90;99.90;;;;;;5069203;28;20540;-63
2022/04/28 12:33:36;;;;;;;15.97;14.50;;;22.00;99.90;;;;;;5073300;28;20560;-63
2022/04/28 12:36:04;;;;;;;17.23;15.63;;;21.10;99.90;;;;;;5073689;28;20462;-63
2022/04/28 12:38:35;;;;;;;16.60;15.07;;;20.50;99.90;;;;;;5074495;28;20462;-63
2022/04/28 12:41:14;;;;;;;17.63;15.80;;;20.30;99.90;;;;;;5073614;28;20469;-63
2022/04/28 12:43:50;;;;;;;16.40;14.90;;;20.60;99.90;;;;;;5074744;28;20492;-63
2022/04/28 12:46:34;;;;;;;19.40;17.00;;;21.10;99.90;;;;;;5073207;28;20457;-63
2022/04/28 12:49:05;;;;;;;16.30;14.70;;;22.10;99.90;;;;;;5070923;28;20493;-63
2022/04/28 12:51:40;;;;;;;15.93;14.53;;;22.60;99.90;;;;;;5072907;28;20465;-63
2022/04/28 12:54:20;;;;;;;16.30;14.70;;;21.40;99.90;;;;;;5073354;28;20498;-63
2022/04/28 12:56:54;;;;;;;17.20;15.43;;;20.80;99.90;;;;;;5073156;28;20469;-63
2022/04/28 12:59:28;;;;;;;18.37;16.67;;;21.50;99.90;;;;;;5073840;28;20473;-63
2022/04/28 13:01:56;;;;;;;15.60;14.37;;;20.60;99.90;;;;;;5073993;28;20805;-63
2022/04/28 13:04:37;;;;;;;16.50;14.80;;;21.50;99.90;;;;;;5073322;28;20468;-63
2022/04/28 13:07:05;;;;;;;16.37;14.93;;;22.40;99.90;;;;;;5072067;28;20780;-63
2022/04/28 13:09:34;;;;;;;15.27;13.77;;;23.30;99.90;;;;;;5072651;28;20950;-63
2022/04/28 13:12:04;;;;;;;17.33;15.80;;;23.50;99.90;;;;;;5074255;28;20474;-63
2022/04/28 13:14:31;;;;;;;20.27;16.00;;;22.10;99.90;;;;;;5074984;28;20493;-63
2022/04/28 13:17:00;;;;;;;16.03;14.53;;;20.90;99.90;;;;;;5074745;28;20535;-63
2022/04/28 13:19:30;;;;;;;15.50;14.13;;;21.50;99.90;;;;;;5073868;28;20500;-63
2022/04/28 13:22:03;;;;;;;17.30;15.70;;;21.50;99.90;;;;;;5073299;28;20941;-63
2022/04/28 13:24:34;;;;;;;15.77;14.17;;;22.20;99.90;;;;;;5073842;28;20552;-63
2022/04/28 13:27:02;;;;;;;17.73;15.93;;;22.40;99.90;;;;;;5072867;28;20489;-63
2022/04/28 13:29:32;;;;;;;14.80;13.43;;;22.20;99.90;;;;;;5073149;28;20884;-63
2022/04/28 13:32:04;;;;;;;16.33;14.80;;;22.30;99.90;;;;;;5072915;28;20828;-63
2022/04/28 13:34:31;;;;;;;15.70;14.20;;;22.50;99.90;;;;;;5073798;28;20457;-63
2022/04/28 13:36:58;;;;;;;15.17;13.77;;;22.70;99.90;;;;;;5072951;28;20538;-63